sensor_id;sensor_type;location;lat;lon;timestamp;pressure;altitude;pressure_sealevel;temperature;humidity
40155;BME280;25875;48.202;16.334;2023-07-09T00:02:20;99478.91;;;23.40;43.34
40155;BME280;25875;48.202;16.334;2023-07-09T00:04:47;99482.13;;;23.44;43.53
40155;BME280;25875;48.202;16.334;2023-07-09T00:07:18;99485.16;;;23.41;43.54
40155;BME280;25875;48.202;16.334;2023-07-09T00:09:45;99483.44;;;23.31;44.06
40155;BME280;25875;48.202;16.334;2023-07-09T00:12:14;99490.69;;;23.31;43.69
40155;BME280;25875;48.202;16.334;2023-07-09T00:14:42;99492.91;;;23.35;43.61
40155;BME280;25875;48.202;16.334;2023-07-09T00:17:10;99499.66;;;23.31;43.88
40155;BME280;25875;48.202;16.334;2023-07-09T00:19:38;99483.25;;;23.33;43.65
40155;BME280;25875;48.202;16.334;2023-07-09T00:22:13;99467.63;;;23.19;43.81
40155;BME280;25875;48.202;16.334;2023-07-09T00:24:42;99492.81;;;23.19;43.83
40155;BME280;25875;48.202;16.334;2023-07-09T00:27:10;99494.47;;;23.12;43.88
40155;BME280;25875;48.202;16.334;2023-07-09T00:29:36;99489.06;;;23.12;43.87
40155;BME280;25875;48.202;16.334;2023-07-09T00:32:10;99489.69;;;23.06;43.96
40155;BME280;25875;48.202;16.334;2023-07-09T00:34:38;99449.88;;;22.82;43.86
40155;BME280;25875;48.202;16.334;2023-07-09T00:37:10;99490.50;;;22.98;44.01
40155;BME280;25875;48.202;16.334;2023-07-09T00:39:38;99494.56;;;23.02;43.83
40155;BME280;25875;48.202;16.334;2023-07-09T00:42:07;99498.28;;;23.01;44.04
40155;BME280;25875;48.202;16.334;2023-07-09T00:44:36;99505.19;;;22.96;44.00
40155;BME280;25875;48.202;16.334;2023-07-09T00:47:34;99511.59;;;22.95;44.03
40155;BME280;25875;48.202;16.334;2023-07-09T00:50:11;99507.47;;;22.83;44.39
40155;BME280;25875;48.202;16.334;2023-07-09T00:52:47;99502.28;;;22.89;44.24
40155;BME280;25875;48.202;16.334;2023-07-09T00:55:21;99503.81;;;22.92;44.28
40155;BME280;25875;48.202;16.334;2023-07-09T00:57:49;99498.50;;;22.82;44.46
40155;BME280;25875;48.202;16.334;2023-07-09T01:00:23;99336.09;;;21.82;44.39
40155;BME280;25875;48.202;16.334;2023-07-09T01:02:52;99486.59;;;22.67;44.41
40155;BME280;25875;48.202;16.334;2023-07-09T01:05:19;99498.47;;;22.74;44.67
40155;BME280;25875;48.202;16.334;2023-07-09T01:07:47;99504.66;;;22.66;44.99
40155;BME280;25875;48.202;16.334;2023-07-09T01:10:14;99508.56;;;22.72;44.89
40155;BME280;25875;48.202;16.334;2023-07-09T01:12:41;99501.78;;;22.68;45.00
40155;BME280;25875;48.202;16.334;2023-07-09T01:15:09;99500.63;;;22.70;45.03
40155;BME280;25875;48.202;16.334;2023-07-09T01:17:37;99497.97;;;22.79;44.67
40155;BME280;25875;48.202;16.334;2023-07-09T01:20:07;99498.56;;;22.64;45.00
40155;BME280;25875;48.202;16.334;2023-07-09T01:22:36;99497.50;;;22.57;45.11
40155;BME280;25875;48.202;16.334;2023-07-09T01:25:05;99494.47;;;22.60;45.10
40155;BME280;25875;48.202;16.334;2023-07-09T01:27:34;99495.22;;;22.70;45.16
40155;BME280;25875;48.202;16.334;2023-07-09T01:30:06;99497.88;;;22.62;45.47
40155;BME280;25875;48.202;16.334;2023-07-09T01:32:34;99501.03;;;22.58;45.57
40155;BME280;25875;48.202;16.334;2023-07-09T01:35:03;99500.09;;;22.67;45.14
40155;BME280;25875;48.202;16.334;2023-07-09T01:37:35;99509.00;;;22.59;45.67
40155;BME280;25875;48.202;16.334;2023-07-09T01:40:06;99517.94;;;22.60;45.66
40155;BME280;25875;48.202;16.334;2023-07-09T01:42:35;99503.97;;;22.47;45.95
40155;BME280;25875;48.202;16.334;2023-07-09T01:45:04;99508.22;;;22.49;45.96
40155;BME280;25875;48.202;16.334;2023-07-09T01:47:31;99506.66;;;22.47;45.94
40155;BME280;25875;48.202;16.334;2023-07-09T01:49:58;99500.72;;;22.43;46.05
40155;BME280;25875;48.202;16.334;2023-07-09T01:52:27;99507.56;;;22.37;46.59
40155;BME280;25875;48.202;16.334;2023-07-09T01:54:54;99506.81;;;22.45;46.45
40155;BME280;25875;48.202;16.334;2023-07-09T01:57:24;99510.00;;;22.40;46.70
40155;BME280;25875;48.202;16.334;2023-07-09T01:59:52;99511.91;;;22.30;46.89
40155;BME280;25875;48.202;16.334;2023-07-09T02:02:20;99507.13;;;22.24;47.17
40155;BME280;25875;48.202;16.334;2023-07-09T02:04:48;99493.72;;;22.15;47.23
40155;BME280;25875;48.202;16.334;2023-07-09T02:07:15;99518.31;;;22.29;47.16
40155;BME280;25875;48.202;16.334;2023-07-09T02:09:41;99516.44;;;22.30;46.93
40155;BME280;25875;48.202;16.334;2023-07-09T02:12:09;99510.97;;;22.22;47.28
40155;BME280;25875;48.202;16.334;2023-07-09T02:14:38;99515.84;;;22.18;47.23
40155;BME280;25875;48.202;16.334;2023-07-09T02:17:06;99515.00;;;22.18;47.20
40155;BME280;25875;48.202;16.334;2023-07-09T02:19:33;99527.88;;;22.06;47.64
40155;BME280;25875;48.202;16.334;2023-07-09T02:21:59;99527.41;;;21.93;47.81
40155;BME280;25875;48.202;16.334;2023-07-09T02:24:26;99528.25;;;21.93;47.84
40155;BME280;25875;48.202;16.334;2023-07-09T02:26:53;99525.41;;;21.95;47.62
40155;BME280;25875;48.202;16.334;2023-07-09T02:29:20;99521.69;;;21.96;47.69
40155;BME280;25875;48.202;16.334;2023-07-09T02:31:49;99438.53;;;21.46;47.68
40155;BME280;25875;48.202;16.334;2023-07-09T02:34:16;99531.72;;;22.03;47.55
40155;BME280;25875;48.202;16.334;2023-07-09T02:36:42;99528.56;;;22.08;47.63
40155;BME280;25875;48.202;16.334;2023-07-09T02:39:09;99531.19;;;22.00;47.75
40155;BME280;25875;48.202;16.334;2023-07-09T02:41:36;99528.78;;;21.97;47.67
40155;BME280;25875;48.202;16.334;2023-07-09T02:44:04;99418.72;;;21.37;47.59
40155;BME280;25875;48.202;16.334;2023-07-09T02:46:30;99535.88;;;21.98;47.97
40155;BME280;25875;48.202;16.334;2023-07-09T02:48:58;99548.13;;;21.92;48.10
40155;BME280;25875;48.202;16.334;2023-07-09T02:51:25;99544.03;;;21.88;47.75
40155;BME280;25875;48.202;16.334;2023-07-09T02:53:53;99537.50;;;21.91;48.17
40155;BME280;25875;48.202;16.334;2023-07-09T02:56:20;99544.03;;;21.88;48.16
40155;BME280;25875;48.202;16.334;2023-07-09T02:58:46;99546.94;;;21.77;48.03
40155;BME280;25875;48.202;16.334;2023-07-09T03:01:13;99540.53;;;21.78;48.14
40155;BME280;25875;48.202;16.334;2023-07-09T03:03:40;99548.63;;;21.78;48.11
40155;BME280;25875;48.202;16.334;2023-07-09T03:06:09;99540.69;;;21.76;47.74
40155;BME280;25875;48.202;16.334;2023-07-09T03:08:36;99544.97;;;21.69;48.12
40155;BME280;25875;48.202;16.334;2023-07-09T03:11:09;99543.97;;;21.70;48.05
40155;BME280;25875;48.202;16.334;2023-07-09T03:13:36;99549.97;;;21.64;48.37
40155;BME280;25875;48.202;16.334;2023-07-09T03:16:03;99555.06;;;21.67;47.93
40155;BME280;25875;48.202;16.334;2023-07-09T03:18:30;99469.09;;;21.00;48.08
40155;BME280;25875;48.202;16.334;2023-07-09T03:20:57;99563.31;;;21.66;48.30
40155;BME280;25875;48.202;16.334;2023-07-09T03:23:25;99563.31;;;21.66;48.09
40155;BME280;25875;48.202;16.334;2023-07-09T03:25:52;99562.31;;;21.67;48.03
40155;BME280;25875;48.202;16.334;2023-07-09T03:28:18;99567.56;;;21.68;47.90
40155;BME280;25875;48.202;16.334;2023-07-09T03:30:46;99569.72;;;21.65;48.01
40155;BME280;25875;48.202;16.334;2023-07-09T03:33:15;99563.22;;;21.58;48.41
40155;BME280;25875;48.202;16.334;2023-07-09T03:35:42;99569.31;;;21.60;48.55
40155;BME280;25875;48.202;16.334;2023-07-09T03:38:10;99563.47;;;21.64;48.41
40155;BME280;25875;48.202;16.334;2023-07-09T03:40:38;99559.81;;;21.56;48.79
40155;BME280;25875;48.202;16.334;2023-07-09T03:43:05;99566.50;;;21.52;48.39
40155;BME280;25875;48.202;16.334;2023-07-09T03:45:32;99559.72;;;21.48;48.69
40155;BME280;25875;48.202;16.334;2023-07-09T03:47:59;99562.31;;;21.39;48.62
40155;BME280;25875;48.202;16.334;2023-07-09T03:50:26;99570.66;;;21.46;48.78
40155;BME280;25875;48.202;16.334;2023-07-09T03:52:53;99560.25;;;21.51;48.32
40155;BME280;25875;48.202;16.334;2023-07-09T03:55:19;99558.28;;;21.53;48.29
40155;BME280;25875;48.202;16.334;2023-07-09T03:57:47;99558.56;;;21.50;48.49
40155;BME280;25875;48.202;16.334;2023-07-09T04:00:14;99557.03;;;21.48;48.59
40155;BME280;25875;48.202;16.334;2023-07-09T04:02:41;99558.97;;;21.55;48.70
40155;BME280;25875;48.202;16.334;2023-07-09T04:05:10;99562.31;;;21.39;49.10
40155;BME280;25875;48.202;16.334;2023-07-09T04:07:37;99564.41;;;21.45;49.23
40155;BME280;25875;48.202;16.334;2023-07-09T04:10:04;99563.50;;;21.55;48.98
40155;BME280;25875;48.202;16.334;2023-07-09T04:12:31;99562.56;;;21.46;49.13
40155;BME280;25875;48.202;16.334;2023-07-09T04:14:59;99563.13;;;21.50;49.34
40155;BME280;25875;48.202;16.334;2023-07-09T04:17:26;99559.72;;;21.48;49.76
40155;BME280;25875;48.202;16.334;2023-07-09T04:19:53;99539.38;;;21.26;50.07
40155;BME280;25875;48.202;16.334;2023-07-09T04:22:19;99562.41;;;21.48;49.54
40155;BME280;25875;48.202;16.334;2023-07-09T04:24:46;99557.91;;;21.38;50.06
40155;BME280;25875;48.202;16.334;2023-07-09T04:27:13;99550.81;;;21.37;50.35
40155;BME280;25875;48.202;16.334;2023-07-09T04:29:40;99553.22;;;21.40;50.18
40155;BME280;25875;48.202;16.334;2023-07-09T04:32:13;99564.81;;;21.51;50.06
40155;BME280;25875;48.202;16.334;2023-07-09T04:34:40;99563.41;;;21.46;50.12
40155;BME280;25875;48.202;16.334;2023-07-09T04:37:09;99570.81;;;21.44;50.25
40155;BME280;25875;48.202;16.334;2023-07-09T04:39:37;99565.81;;;21.50;50.33
40155;BME280;25875;48.202;16.334;2023-07-09T04:42:05;99568.66;;;21.48;50.11
40155;BME280;25875;48.202;16.334;2023-07-09T04:44:32;99570.50;;;21.48;50.54
40155;BME280;25875;48.202;16.334;2023-07-09T04:46:59;99567.84;;;21.38;50.43
40155;BME280;25875;48.202;16.334;2023-07-09T04:49:27;99588.09;;;21.52;50.33
40155;BME280;25875;48.202;16.334;2023-07-09T04:51:53;99588.78;;;21.54;50.54
40155;BME280;25875;48.202;16.334;2023-07-09T04:54:21;99591.88;;;21.59;50.60
40155;BME280;25875;48.202;16.334;2023-07-09T04:56:48;99605.91;;;21.62;50.71
40155;BME280;25875;48.202;16.334;2023-07-09T04:59:15;99606.75;;;21.63;50.97
40155;BME280;25875;48.202;16.334;2023-07-09T05:01:42;99601.53;;;21.61;51.06
40155;BME280;25875;48.202;16.334;2023-07-09T05:04:08;99600.66;;;21.61;51.03
40155;BME280;25875;48.202;16.334;2023-07-09T05:06:36;99599.63;;;21.71;50.43
40155;BME280;25875;48.202;16.334;2023-07-09T05:09:03;99608.72;;;21.70;51.01
40155;BME280;25875;48.202;16.334;2023-07-09T05:11:33;99602.31;;;21.71;50.97
40155;BME280;25875;48.202;16.334;2023-07-09T05:14:00;99606.31;;;21.67;51.03
40155;BME280;25875;48.202;16.334;2023-07-09T05:16:26;99605.91;;;21.62;51.35
40155;BME280;25875;48.202;16.334;2023-07-09T05:18:53;99603.78;;;21.66;51.26
40155;BME280;25875;48.202;16.334;2023-07-09T05:21:20;99608.69;;;21.80;50.38
40155;BME280;25875;48.202;16.334;2023-07-09T05:23:48;99603.56;;;21.87;50.49
40155;BME280;25875;48.202;16.334;2023-07-09T05:26:14;99603.25;;;21.90;50.62
40155;BME280;25875;48.202;16.334;2023-07-09T05:28:41;99603.56;;;21.87;50.88
40155;BME280;25875;48.202;16.334;2023-07-09T05:31:07;99602.66;;;21.96;49.82
40155;BME280;25875;48.202;16.334;2023-07-09T05:33:34;99606.66;;;21.92;50.25
40155;BME280;25875;48.202;16.334;2023-07-09T05:36:01;99611.19;;;21.91;49.53
40155;BME280;25875;48.202;16.334;2023-07-09T05:38:28;99615.84;;;21.99;49.75
40155;BME280;25875;48.202;16.334;2023-07-09T05:41:01;99613.94;;;22.09;49.85
40155;BME280;25875;48.202;16.334;2023-07-09T05:43:28;99621.13;;;22.18;49.52
40155;BME280;25875;48.202;16.334;2023-07-09T05:45:55;99605.91;;;22.17;49.79
40155;BME280;25875;48.202;16.334;2023-07-09T05:48:22;99616.88;;;22.16;49.70
40155;BME280;25875;48.202;16.334;2023-07-09T05:50:52;99625.97;;;22.15;49.40
40155;BME280;25875;48.202;16.334;2023-07-09T05:53:19;99627.75;;;22.24;49.28
40155;BME280;25875;48.202;16.334;2023-07-09T05:55:46;99622.34;;;22.24;49.25
40155;BME280;25875;48.202;16.334;2023-07-09T05:58:14;99621.81;;;22.20;49.85
40155;BME280;25875;48.202;16.334;2023-07-09T06:00:40;99628.16;;;22.29;49.46
40155;BME280;25875;48.202;16.334;2023-07-09T06:03:08;99624.59;;;22.28;49.53
40155;BME280;25875;48.202;16.334;2023-07-09T06:05:34;99441.81;;;21.22;49.39
40155;BME280;25875;48.202;16.334;2023-07-09T06:08:02;99626.38;;;22.37;49.57
40155;BME280;25875;48.202;16.334;2023-07-09T06:10:29;99626.69;;;22.34;49.95
40155;BME280;25875;48.202;16.334;2023-07-09T06:12:56;99625.22;;;22.40;49.54
40155;BME280;25875;48.202;16.334;2023-07-09T06:15:25;99622.94;;;22.45;49.00
40155;BME280;25875;48.202;16.334;2023-07-09T06:17:51;99622.09;;;22.45;48.38
40155;BME280;25875;48.202;16.334;2023-07-09T06:20:18;99633.81;;;22.53;48.56
40155;BME280;25875;48.202;16.334;2023-07-09T06:22:45;99639.81;;;22.57;48.27
40155;BME280;25875;48.202;16.334;2023-07-09T06:25:12;99630.84;;;22.56;48.44
40155;BME280;25875;48.202;16.334;2023-07-09T06:27:39;99633.63;;;22.64;48.40
40155;BME280;25875;48.202;16.334;2023-07-09T06:30:07;99630.63;;;22.67;48.58
40155;BME280;25875;48.202;16.334;2023-07-09T06:32:35;99630.16;;;22.72;47.94
40155;BME280;25875;48.202;16.334;2023-07-09T06:35:02;99637.25;;;22.73;47.82
40155;BME280;25875;48.202;16.334;2023-07-09T06:37:29;99633.06;;;22.79;47.83
40155;BME280;25875;48.202;16.334;2023-07-09T06:39:55;99637.31;;;22.81;47.83
40155;BME280;25875;48.202;16.334;2023-07-09T06:42:22;99636.78;;;22.78;47.59
40155;BME280;25875;48.202;16.334;2023-07-09T06:44:49;99589.19;;;22.59;47.45
40155;BME280;25875;48.202;16.334;2023-07-09T06:47:15;99636.06;;;22.93;47.33
40155;BME280;25875;48.202;16.334;2023-07-09T06:49:43;99634.44;;;23.00;47.14
40155;BME280;25875;48.202;16.334;2023-07-09T06:52:10;99641.84;;;22.98;46.81
40155;BME280;25875;48.202;16.334;2023-07-09T06:54:36;99637.84;;;23.02;46.57
40155;BME280;25875;48.202;16.334;2023-07-09T06:57:04;99640.38;;;23.04;46.92
40155;BME280;25875;48.202;16.334;2023-07-09T06:59:30;99638.91;;;23.10;46.61
40155;BME280;25875;48.202;16.334;2023-07-09T07:01:57;99611.03;;;23.09;46.43
40155;BME280;25875;48.202;16.334;2023-07-09T07:04:25;99637.56;;;23.31;46.53
40155;BME280;25875;48.202;16.334;2023-07-09T07:06:53;99628.66;;;23.39;46.56
40155;BME280;25875;48.202;16.334;2023-07-09T07:09:22;99632.94;;;23.50;46.43
40155;BME280;25875;48.202;16.334;2023-07-09T07:11:49;99583.13;;;23.26;46.35
40155;BME280;25875;48.202;16.334;2023-07-09T07:14:16;99623.38;;;23.63;45.91
40155;BME280;25875;48.202;16.334;2023-07-09T07:16:42;99625.59;;;23.68;45.31
40155;BME280;25875;48.202;16.334;2023-07-09T07:19:09;99626.19;;;23.88;45.78
40155;BME280;25875;48.202;16.334;2023-07-09T07:21:36;99624.44;;;24.13;45.67
40155;BME280;25875;48.202;16.334;2023-07-09T07:24:04;99619.06;;;24.29;44.68
40155;BME280;25875;48.202;16.334;2023-07-09T07:26:31;99614.84;;;24.35;44.66
40155;BME280;25875;48.202;16.334;2023-07-09T07:28:58;99624.34;;;24.47;44.80
40155;BME280;25875;48.202;16.334;2023-07-09T07:31:24;99619.00;;;24.79;44.08
40155;BME280;25875;48.202;16.334;2023-07-09T07:33:51;99610.00;;;24.95;43.53
40155;BME280;25875;48.202;16.334;2023-07-09T07:36:18;99609.19;;;25.11;43.45
40155;BME280;25875;48.202;16.334;2023-07-09T07:38:45;99605.81;;;25.01;42.71
40155;BME280;25875;48.202;16.334;2023-07-09T07:41:13;99599.16;;;25.19;43.09
40155;BME280;25875;48.202;16.334;2023-07-09T07:43:39;99609.28;;;25.50;42.48
40155;BME280;25875;48.202;16.334;2023-07-09T07:46:06;99605.56;;;25.51;42.31
40155;BME280;25875;48.202;16.334;2023-07-09T07:48:33;99595.88;;;25.56;42.40
40155;BME280;25875;48.202;16.334;2023-07-09T07:51:01;99599.00;;;25.84;42.35
40155;BME280;25875;48.202;16.334;2023-07-09T07:53:28;99581.44;;;26.03;42.19
40155;BME280;25875;48.202;16.334;2023-07-09T07:55:55;99596.63;;;26.20;41.59
40155;BME280;25875;48.202;16.334;2023-07-09T07:58:24;99597.84;;;26.41;41.69
40155;BME280;25875;48.202;16.334;2023-07-09T08:00:54;99597.41;;;26.60;40.81
40155;BME280;25875;48.202;16.334;2023-07-09T08:03:22;99596.31;;;26.69;40.83
40155;BME280;25875;48.202;16.334;2023-07-09T08:05:49;99597.19;;;26.84;40.60
40155;BME280;25875;48.202;16.334;2023-07-09T08:08:15;99589.09;;;27.14;39.71
40155;BME280;25875;48.202;16.334;2023-07-09T08:10:42;99583.06;;;27.27;39.69
40155;BME280;25875;48.202;16.334;2023-07-09T08:13:09;99591.31;;;27.48;38.49
40155;BME280;25875;48.202;16.334;2023-07-09T08:15:37;99597.59;;;27.34;39.18
40155;BME280;25875;48.202;16.334;2023-07-09T08:18:04;99600.09;;;27.21;39.17
40155;BME280;25875;48.202;16.334;2023-07-09T08:20:31;99576.38;;;27.29;38.84
40155;BME280;25875;48.202;16.334;2023-07-09T08:22:58;99594.97;;;27.55;38.70
40155;BME280;25875;48.202;16.334;2023-07-09T08:25:25;99593.88;;;27.79;38.13
40155;BME280;25875;48.202;16.334;2023-07-09T08:27:51;99591.06;;;27.72;38.33
40155;BME280;25875;48.202;16.334;2023-07-09T08:30:18;99592.09;;;27.86;38.17
40155;BME280;25875;48.202;16.334;2023-07-09T08:32:46;99597.75;;;27.85;37.47
40155;BME280;25875;48.202;16.334;2023-07-09T08:35:13;99593.88;;;27.79;37.86
40155;BME280;25875;48.202;16.334;2023-07-09T08:37:41;99598.38;;;28.01;37.58
40155;BME280;25875;48.202;16.334;2023-07-09T08:40:12;99605.06;;;28.35;37.50
40155;BME280;25875;48.202;16.334;2023-07-09T08:42:42;99596.34;;;28.61;36.46
40155;BME280;25875;48.202;16.334;2023-07-09T08:45:22;99588.66;;;28.71;36.61
40155;BME280;25875;48.202;16.334;2023-07-09T08:47:59;99596.31;;;28.82;36.17
40155;BME280;25875;48.202;16.334;2023-07-09T08:50:35;99580.22;;;28.87;36.44
40155;BME280;25875;48.202;16.334;2023-07-09T08:53:04;99585.88;;;28.86;35.51
40155;BME280;25875;48.202;16.334;2023-07-09T08:55:32;99592.81;;;28.67;36.08
40155;BME280;25875;48.202;16.334;2023-07-09T08:58:20;99600.88;;;28.75;35.64
40155;BME280;25875;48.202;16.334;2023-07-09T09:00:52;99592.75;;;28.82;36.13
40155;BME280;25875;48.202;16.334;2023-07-09T09:03:28;99536.47;;;28.53;35.81
40155;BME280;25875;48.202;16.334;2023-07-09T09:05:57;99608.19;;;28.96;35.27
40155;BME280;25875;48.202;16.334;2023-07-09T09:08:33;99613.53;;;28.83;35.15
40155;BME280;25875;48.202;16.334;2023-07-09T09:11:10;99597.16;;;29.04;34.50
40155;BME280;25875;48.202;16.334;2023-07-09T09:13:39;99598.97;;;29.18;34.08
40155;BME280;25875;48.202;16.334;2023-07-09T09:16:20;99598.59;;;29.28;34.07
40155;BME280;25875;48.202;16.334;2023-07-09T09:18:50;99550.19;;;28.87;33.54
40155;BME280;25875;48.202;16.334;2023-07-09T09:21:21;99593.50;;;29.18;33.30
40155;BME280;25875;48.202;16.334;2023-07-09T09:23:50;99503.81;;;28.59;34.20
40155;BME280;25875;48.202;16.334;2023-07-09T09:26:23;99589.47;;;29.14;33.88
40155;BME280;25875;48.202;16.334;2023-07-09T09:28:51;99588.13;;;29.59;33.29
40155;BME280;25875;48.202;16.334;2023-07-09T09:31:18;99590.78;;;29.87;33.39
40155;BME280;25875;48.202;16.334;2023-07-09T09:33:47;99585.34;;;29.94;33.07
40155;BME280;25875;48.202;16.334;2023-07-09T09:36:17;99588.09;;;30.00;33.19
40155;BME280;25875;48.202;16.334;2023-07-09T09:38:45;99588.09;;;30.00;32.91
40155;BME280;25875;48.202;16.334;2023-07-09T09:41:13;99586.41;;;29.99;31.39
40155;BME280;25875;48.202;16.334;2023-07-09T09:43:43;99587.91;;;30.02;31.65
40155;BME280;25875;48.202;16.334;2023-07-09T09:46:17;99592.53;;;30.08;31.71
40155;BME280;25875;48.202;16.334;2023-07-09T09:48:46;99583.03;;;29.97;32.16
40155;BME280;25875;48.202;16.334;2023-07-09T09:51:13;99592.44;;;29.82;31.87
40155;BME280;25875;48.202;16.334;2023-07-09T09:53:48;99582.88;;;30.12;32.08
40155;BME280;25875;48.202;16.334;2023-07-09T09:56:19;99589.75;;;30.36;31.79
40155;BME280;25875;48.202;16.334;2023-07-09T09:58:51;99582.63;;;30.42;31.75
40155;BME280;25875;48.202;16.334;2023-07-09T10:01:18;99586.00;;;30.50;31.48
40155;BME280;25875;48.202;16.334;2023-07-09T10:03:47;99588.69;;;30.30;31.79
40155;BME280;25875;48.202;16.334;2023-07-09T10:06:18;99582.94;;;30.19;30.77
40155;BME280;25875;48.202;16.334;2023-07-09T10:08:53;99579.44;;;30.31;31.26
40155;BME280;25875;48.202;16.334;2023-07-09T10:11:29;99579.56;;;30.17;31.37
40155;BME280;25875;48.202;16.334;2023-07-09T10:14:02;99580.47;;;30.24;30.98
40155;BME280;25875;48.202;16.334;2023-07-09T10:16:34;99568.28;;;30.26;30.09
40155;BME280;25875;48.202;16.334;2023-07-09T10:19:14;99575.06;;;30.57;30.19
40155;BME280;25875;48.202;16.334;2023-07-09T10:21:49;99574.66;;;30.66;30.61
40155;BME280;25875;48.202;16.334;2023-07-09T10:24:33;99564.81;;;30.79;30.03
40155;BME280;25875;48.202;16.334;2023-07-09T10:27:09;99561.81;;;30.60;30.64
40155;BME280;25875;48.202;16.334;2023-07-09T10:29:57;99568.13;;;30.61;30.16
40155;BME280;25875;48.202;16.334;2023-07-09T10:32:38;99570.47;;;30.71;30.17
40155;BME280;25875;48.202;16.334;2023-07-09T10:35:15;99565.44;;;30.74;30.56
40155;BME280;25875;48.202;16.334;2023-07-09T10:37:56;99564.59;;;30.80;29.63
40155;BME280;25875;48.202;16.334;2023-07-09T10:40:36;99559.13;;;31.00;29.74
40155;BME280;25875;48.202;16.334;2023-07-09T10:43:06;99557.00;;;30.95;29.22
40155;BME280;25875;48.202;16.334;2023-07-09T10:45:40;99555.50;;;30.47;29.50
40155;BME280;25875;48.202;16.334;2023-07-09T10:48:12;99560.13;;;30.59;29.06
40155;BME280;25875;48.202;16.334;2023-07-09T10:50:44;99552.13;;;30.64;29.97
40155;BME280;25875;48.202;16.334;2023-07-09T10:53:22;99548.97;;;30.61;29.89
40155;BME280;25875;48.202;16.334;2023-07-09T10:55:56;99553.38;;;30.36;33.57
40155;BME280;25875;48.202;16.334;2023-07-09T10:58:30;99547.41;;;30.19;31.30
40155;BME280;25875;48.202;16.334;2023-07-09T11:00:59;99546.72;;;30.10;33.28
40155;BME280;25875;48.202;16.334;2023-07-09T11:03:35;99551.78;;;30.13;32.06
40155;BME280;25875;48.202;16.334;2023-07-09T11:06:04;99549.81;;;29.94;31.33
40155;BME280;25875;48.202;16.334;2023-07-09T11:08:39;99477.22;;;29.58;32.96
40155;BME280;25875;48.202;16.334;2023-07-09T11:11:10;99535.31;;;29.87;32.91
40155;BME280;25875;48.202;16.334;2023-07-09T11:13:42;99508.44;;;29.97;33.13
40155;BME280;25875;48.202;16.334;2023-07-09T11:16:13;99541.88;;;30.06;33.15
40155;BME280;25875;48.202;16.334;2023-07-09T11:18:54;99532.91;;;30.18;32.57
40155;BME280;25875;48.202;16.334;2023-07-09T11:21:22;99536.41;;;30.06;31.77
40155;BME280;25875;48.202;16.334;2023-07-09T11:23:50;99529.25;;;29.98;30.12
40155;BME280;25875;48.202;16.334;2023-07-09T11:26:24;99529.88;;;30.00;30.75
40155;BME280;25875;48.202;16.334;2023-07-09T11:28:52;99538.03;;;29.87;32.44
40155;BME280;25875;48.202;16.334;2023-07-09T11:31:25;99534.50;;;29.99;31.51
40155;BME280;25875;48.202;16.334;2023-07-09T11:34:02;99538.19;;;29.72;30.44
40155;BME280;25875;48.202;16.334;2023-07-09T11:36:35;99539.72;;;29.88;31.28
40155;BME280;25875;48.202;16.334;2023-07-09T11:39:18;99535.31;;;29.93;31.38
40155;BME280;25875;48.202;16.334;2023-07-09T11:41:47;99535.31;;;29.87;27.69
40155;BME280;25875;48.202;16.334;2023-07-09T11:44:17;99538.00;;;29.80;31.89
